sensor_id;sensor_type;location;lat;lon;timestamp;P1;durP1;ratioP1;P2;durP2;ratioP2
21505;SDS011;10914;48.886;9.394;2022-07-01T00:02:24;77.68;;;74.03;;
21505;SDS011;10914;48.886;9.394;2022-07-01T00:04:49;72.72;;;69.43;;
21505;SDS011;10914;48.886;9.394;2022-07-01T00:07:15;97.53;;;92.80;;
21505;SDS011;10914;48.886;9.394;2022-07-01T00:09:41;127.65;;;121.82;;
21505;SDS011;10914;48.886;9.394;2022-07-01T00:12:06;90.07;;;85.90;;
21505;SDS011;10914;48.886;9.394;2022-07-01T00:14:32;98.30;;;93.63;;
21505;SDS011;10914;48.886;9.394;2022-07-01T00:16:57;130.70;;;124.35;;
21505;SDS011;10914;48.886;9.394;2022-07-01T00:19:22;77.03;;;73.45;;
21505;SDS011;10914;48.886;9.394;2022-07-01T00:21:49;103.32;;;98.63;;
21505;SDS011;10914;48.886;9.394;2022-07-01T00:24:14;151.65;;;144.65;;
21505;SDS011;10914;48.886;9.394;2022-07-01T00:26:40;221.35;;;210.85;;
21505;SDS011;10914;48.886;9.394;2022-07-01T00:29:05;199.37;;;189.93;;
21505;SDS011;10914;48.886;9.394;2022-07-01T00:31:30;195.13;;;186.07;;
21505;SDS011;10914;48.886;9.394;2022-07-01T00:33:55;120.43;;;115.03;;
21505;SDS011;10914;48.886;9.394;2022-07-01T00:36:20;154.97;;;148.00;;
21505;SDS011;10914;48.886;9.394;2022-07-01T00:38:46;160.93;;;153.63;;
21505;SDS011;10914;48.886;9.394;2022-07-01T00:41:11;184.63;;;176.30;;
21505;SDS011;10914;48.886;9.394;2022-07-01T00:43:36;173.57;;;165.55;;
21505;SDS011;10914;48.886;9.394;2022-07-01T00:46:04;98.97;;;94.20;;
21505;SDS011;10914;48.886;9.394;2022-07-01T00:48:30;107.35;;;101.90;;
21505;SDS011;10914;48.886;9.394;2022-07-01T00:50:57;102.93;;;98.07;;
21505;SDS011;10914;48.886;9.394;2022-07-01T00:53:22;93.93;;;89.65;;
21505;SDS011;10914;48.886;9.394;2022-07-01T00:55:47;103.70;;;98.75;;
21505;SDS011;10914;48.886;9.394;2022-07-01T00:58:12;138.27;;;131.80;;
21505;SDS011;10914;48.886;9.394;2022-07-01T01:00:38;117.55;;;111.93;;
21505;SDS011;10914;48.886;9.394;2022-07-01T01:03:04;185.27;;;176.48;;
21505;SDS011;10914;48.886;9.394;2022-07-01T01:05:29;99.07;;;94.47;;
21505;SDS011;10914;48.886;9.394;2022-07-01T01:07:55;129.07;;;122.82;;
21505;SDS011;10914;48.886;9.394;2022-07-01T01:10:20;117.22;;;111.63;;
21505;SDS011;10914;48.886;9.394;2022-07-01T01:12:48;117.93;;;112.38;;
21505;SDS011;10914;48.886;9.394;2022-07-01T01:15:19;151.20;;;143.87;;
21505;SDS011;10914;48.886;9.394;2022-07-01T01:17:45;131.57;;;125.25;;
21505;SDS011;10914;48.886;9.394;2022-07-01T01:20:18;149.55;;;142.45;;
21505;SDS011;10914;48.886;9.394;2022-07-01T01:22:43;144.80;;;137.98;;
21505;SDS011;10914;48.886;9.394;2022-07-01T01:25:09;149.57;;;142.52;;
21505;SDS011;10914;48.886;9.394;2022-07-01T01:27:34;149.98;;;143.10;;
21505;SDS011;10914;48.886;9.394;2022-07-01T01:29:59;126.13;;;120.13;;
21505;SDS011;10914;48.886;9.394;2022-07-01T01:32:24;117.73;;;112.20;;
21505;SDS011;10914;48.886;9.394;2022-07-01T01:34:50;66.13;;;62.70;;
21505;SDS011;10914;48.886;9.394;2022-07-01T01:37:15;85.70;;;81.83;;
21505;SDS011;10914;48.886;9.394;2022-07-01T01:39:40;69.78;;;66.55;;
21505;SDS011;10914;48.886;9.394;2022-07-01T01:42:05;43.83;;;41.73;;
21505;SDS011;10914;48.886;9.394;2022-07-01T01:44:31;59.80;;;57.00;;
21505;SDS011;10914;48.886;9.394;2022-07-01T01:46:57;52.85;;;50.47;;
21505;SDS011;10914;48.886;9.394;2022-07-01T01:49:22;38.13;;;36.37;;
21505;SDS011;10914;48.886;9.394;2022-07-01T01:51:47;33.57;;;31.87;;
21505;SDS011;10914;48.886;9.394;2022-07-01T01:54:12;30.23;;;28.83;;
21505;SDS011;10914;48.886;9.394;2022-07-01T01:56:37;37.42;;;35.70;;
21505;SDS011;10914;48.886;9.394;2022-07-01T01:59:03;35.10;;;33.42;;
21505;SDS011;10914;48.886;9.394;2022-07-01T02:01:29;36.08;;;34.35;;
21505;SDS011;10914;48.886;9.394;2022-07-01T02:03:55;29.52;;;28.15;;
21505;SDS011;10914;48.886;9.394;2022-07-01T02:06:21;38.17;;;36.38;;
21505;SDS011;10914;48.886;9.394;2022-07-01T02:08:46;42.88;;;40.92;;
21505;SDS011;10914;48.886;9.394;2022-07-01T02:11:11;37.63;;;35.83;;
21505;SDS011;10914;48.886;9.394;2022-07-01T02:13:36;38.22;;;36.30;;
21505;SDS011;10914;48.886;9.394;2022-07-01T02:16:02;44.83;;;42.67;;
21505;SDS011;10914;48.886;9.394;2022-07-01T02:18:28;27.02;;;25.80;;
21505;SDS011;10914;48.886;9.394;2022-07-01T02:20:53;23.85;;;22.65;;
21505;SDS011;10914;48.886;9.394;2022-07-01T02:23:18;46.17;;;43.83;;
21505;SDS011;10914;48.886;9.394;2022-07-01T02:25:43;31.25;;;29.75;;
21505;SDS011;10914;48.886;9.394;2022-07-01T02:28:09;34.92;;;33.33;;
21505;SDS011;10914;48.886;9.394;2022-07-01T02:30:34;30.00;;;28.60;;
21505;SDS011;10914;48.886;9.394;2022-07-01T02:33:05;26.27;;;25.08;;
21505;SDS011;10914;48.886;9.394;2022-07-01T02:35:35;27.90;;;26.55;;
21505;SDS011;10914;48.886;9.394;2022-07-01T02:38:00;28.95;;;27.40;;
21505;SDS011;10914;48.886;9.394;2022-07-01T02:40:26;32.88;;;31.38;;
21505;SDS011;10914;48.886;9.394;2022-07-01T02:42:51;29.65;;;28.27;;
21505;SDS011;10914;48.886;9.394;2022-07-01T02:45:16;30.85;;;29.42;;
21505;SDS011;10914;48.886;9.394;2022-07-01T02:47:42;48.25;;;46.00;;
21505;SDS011;10914;48.886;9.394;2022-07-01T02:50:08;62.92;;;59.80;;
21505;SDS011;10914;48.886;9.394;2022-07-01T02:52:34;78.25;;;74.60;;
21505;SDS011;10914;48.886;9.394;2022-07-01T02:55:03;100.40;;;95.65;;
21505;SDS011;10914;48.886;9.394;2022-07-01T02:57:29;76.00;;;72.50;;
21505;SDS011;10914;48.886;9.394;2022-07-01T02:59:54;68.28;;;65.13;;
21505;SDS011;10914;48.886;9.394;2022-07-01T03:02:20;64.35;;;61.40;;
21505;SDS011;10914;48.886;9.394;2022-07-01T03:04:48;90.05;;;85.93;;
21505;SDS011;10914;48.886;9.394;2022-07-01T03:07:14;113.32;;;108.03;;
21505;SDS011;10914;48.886;9.394;2022-07-01T03:09:39;77.88;;;74.28;;
21505;SDS011;10914;48.886;9.394;2022-07-01T03:12:05;99.75;;;95.20;;
21505;SDS011;10914;48.886;9.394;2022-07-01T03:14:49;84.45;;;80.50;;
21505;SDS011;10914;48.886;9.394;2022-07-01T03:17:14;83.88;;;80.00;;
21505;SDS011;10914;48.886;9.394;2022-07-01T03:19:40;118.18;;;112.47;;
21505;SDS011;10914;48.886;9.394;2022-07-01T03:22:05;106.43;;;101.47;;
21505;SDS011;10914;48.886;9.394;2022-07-01T03:24:31;105.68;;;100.60;;
21505;SDS011;10914;48.886;9.394;2022-07-01T03:26:56;123.90;;;118.18;;
21505;SDS011;10914;48.886;9.394;2022-07-01T03:29:21;92.57;;;88.25;;
21505;SDS011;10914;48.886;9.394;2022-07-01T03:31:47;70.78;;;67.35;;
21505;SDS011;10914;48.886;9.394;2022-07-01T03:34:12;85.30;;;81.35;;
21505;SDS011;10914;48.886;9.394;2022-07-01T03:36:37;85.18;;;81.25;;
21505;SDS011;10914;48.886;9.394;2022-07-01T03:39:02;69.87;;;66.70;;
21505;SDS011;10914;48.886;9.394;2022-07-01T03:41:29;76.32;;;72.72;;
21505;SDS011;10914;48.886;9.394;2022-07-01T03:43:54;67.95;;;64.72;;
21505;SDS011;10914;48.886;9.394;2022-07-01T03:46:19;70.30;;;66.93;;
21505;SDS011;10914;48.886;9.394;2022-07-01T03:48:45;83.20;;;79.33;;
21505;SDS011;10914;48.886;9.394;2022-07-01T03:51:10;82.80;;;78.93;;
21505;SDS011;10914;48.886;9.394;2022-07-01T03:53:35;90.45;;;86.28;;
21505;SDS011;10914;48.886;9.394;2022-07-01T03:56:19;80.95;;;76.43;;
21505;SDS011;10914;48.886;9.394;2022-07-01T03:58:44;81.00;;;77.20;;
21505;SDS011;10914;48.886;9.394;2022-07-01T04:01:09;72.05;;;68.72;;
21505;SDS011;10914;48.886;9.394;2022-07-01T04:03:35;74.57;;;71.13;;
21505;SDS011;10914;48.886;9.394;2022-07-01T04:06:00;60.80;;;57.97;;
21505;SDS011;10914;48.886;9.394;2022-07-01T04:08:25;85.85;;;81.82;;
21505;SDS011;10914;48.886;9.394;2022-07-01T04:10:50;91.70;;;87.35;;
21505;SDS011;10914;48.886;9.394;2022-07-01T04:13:18;85.10;;;81.07;;
21505;SDS011;10914;48.886;9.394;2022-07-01T04:15:43;93.70;;;89.23;;
21505;SDS011;10914;48.886;9.394;2022-07-01T04:18:08;87.03;;;82.87;;
21505;SDS011;10914;48.886;9.394;2022-07-01T04:20:34;71.73;;;68.17;;
21505;SDS011;10914;48.886;9.394;2022-07-01T04:22:59;85.22;;;81.25;;
21505;SDS011;10914;48.886;9.394;2022-07-01T04:25:24;90.80;;;86.40;;
21505;SDS011;10914;48.886;9.394;2022-07-01T04:27:50;101.63;;;96.82;;
21505;SDS011;10914;48.886;9.394;2022-07-01T04:30:15;112.55;;;107.32;;
21505;SDS011;10914;48.886;9.394;2022-07-01T04:32:40;97.93;;;93.32;;
21505;SDS011;10914;48.886;9.394;2022-07-01T04:35:07;100.90;;;96.15;;
21505;SDS011;10914;48.886;9.394;2022-07-01T04:37:32;109.47;;;104.15;;
21505;SDS011;10914;48.886;9.394;2022-07-01T04:39:57;134.63;;;128.32;;
21505;SDS011;10914;48.886;9.394;2022-07-01T04:42:23;138.63;;;132.05;;
21505;SDS011;10914;48.886;9.394;2022-07-01T04:44:48;100.45;;;95.60;;
21505;SDS011;10914;48.886;9.394;2022-07-01T04:47:14;106.00;;;101.00;;
21505;SDS011;10914;48.886;9.394;2022-07-01T04:49:39;111.65;;;106.25;;
21505;SDS011;10914;48.886;9.394;2022-07-01T04:52:04;99.93;;;95.17;;
21505;SDS011;10914;48.886;9.394;2022-07-01T04:54:29;89.40;;;85.07;;
21505;SDS011;10914;48.886;9.394;2022-07-01T04:56:55;79.30;;;75.45;;
21505;SDS011;10914;48.886;9.394;2022-07-01T04:59:20;103.27;;;98.33;;
21505;SDS011;10914;48.886;9.394;2022-07-01T05:01:45;102.20;;;97.35;;
21505;SDS011;10914;48.886;9.394;2022-07-01T05:04:14;97.00;;;92.03;;
21505;SDS011;10914;48.886;9.394;2022-07-01T05:06:39;93.38;;;88.47;;
21505;SDS011;10914;48.886;9.394;2022-07-01T05:09:04;103.28;;;98.32;;
21505;SDS011;10914;48.886;9.394;2022-07-01T05:11:30;99.03;;;94.25;;
21505;SDS011;10914;48.886;9.394;2022-07-01T05:13:55;109.63;;;104.28;;
21505;SDS011;10914;48.886;9.394;2022-07-01T05:16:20;143.80;;;136.95;;
21505;SDS011;10914;48.886;9.394;2022-07-01T05:18:45;163.53;;;155.60;;
21505;SDS011;10914;48.886;9.394;2022-07-01T05:21:29;161.25;;;153.57;;
21505;SDS011;10914;48.886;9.394;2022-07-01T05:24:13;157.65;;;149.93;;
21505;SDS011;10914;48.886;9.394;2022-07-01T05:26:38;166.40;;;158.02;;
21505;SDS011;10914;48.886;9.394;2022-07-01T05:29:04;149.60;;;142.32;;
21505;SDS011;10914;48.886;9.394;2022-07-01T05:31:29;160.07;;;152.30;;
21505;SDS011;10914;48.886;9.394;2022-07-01T05:33:55;129.57;;;123.20;;
21505;SDS011;10914;48.886;9.394;2022-07-01T05:36:20;118.40;;;112.57;;
21505;SDS011;10914;48.886;9.394;2022-07-01T05:38:45;129.48;;;122.97;;
21505;SDS011;10914;48.886;9.394;2022-07-01T05:41:12;104.03;;;98.88;;
21505;SDS011;10914;48.886;9.394;2022-07-01T05:43:37;106.43;;;101.22;;
21505;SDS011;10914;48.886;9.394;2022-07-01T05:46:02;145.77;;;138.50;;
21505;SDS011;10914;48.886;9.394;2022-07-01T05:48:27;126.20;;;120.13;;
21505;SDS011;10914;48.886;9.394;2022-07-01T05:50:53;135.90;;;129.25;;
21505;SDS011;10914;48.886;9.394;2022-07-01T05:53:18;148.37;;;141.20;;
21505;SDS011;10914;48.886;9.394;2022-07-01T05:55:43;141.77;;;134.68;;
21505;SDS011;10914;48.886;9.394;2022-07-01T05:58:12;124.50;;;118.40;;
21505;SDS011;10914;48.886;9.394;2022-07-01T06:00:40;115.20;;;109.60;;
21505;SDS011;10914;48.886;9.394;2022-07-01T06:03:09;99.72;;;94.78;;
21505;SDS011;10914;48.886;9.394;2022-07-01T06:05:34;112.47;;;107.10;;
21505;SDS011;10914;48.886;9.394;2022-07-01T06:07:59;121.85;;;115.68;;
21505;SDS011;10914;48.886;9.394;2022-07-01T06:10:25;115.90;;;110.40;;
21505;SDS011;10914;48.886;9.394;2022-07-01T06:12:50;136.25;;;129.65;;
21505;SDS011;10914;48.886;9.394;2022-07-01T06:15:15;160.38;;;152.77;;
21505;SDS011;10914;48.886;9.394;2022-07-01T06:17:40;137.23;;;130.50;;
21505;SDS011;10914;48.886;9.394;2022-07-01T06:20:06;128.18;;;122.00;;
21505;SDS011;10914;48.886;9.394;2022-07-01T06:22:32;135.80;;;129.38;;
21505;SDS011;10914;48.886;9.394;2022-07-01T06:24:57;124.20;;;118.13;;
21505;SDS011;10914;48.886;9.394;2022-07-01T06:27:23;137.45;;;130.77;;
21505;SDS011;10914;48.886;9.394;2022-07-01T06:29:48;126.47;;;120.20;;
21505;SDS011;10914;48.886;9.394;2022-07-01T06:32:14;113.90;;;108.32;;
21505;SDS011;10914;48.886;9.394;2022-07-01T06:34:39;129.47;;;123.13;;
21505;SDS011;10914;48.886;9.394;2022-07-01T06:37:04;125.88;;;119.75;;
21505;SDS011;10914;48.886;9.394;2022-07-01T06:39:29;120.00;;;114.03;;
21505;SDS011;10914;48.886;9.394;2022-07-01T06:41:55;127.00;;;120.77;;
21505;SDS011;10914;48.886;9.394;2022-07-01T06:44:20;155.60;;;148.10;;
21505;SDS011;10914;48.886;9.394;2022-07-01T06:46:45;129.10;;;122.68;;
21505;SDS011;10914;48.886;9.394;2022-07-01T06:49:11;105.63;;;100.37;;
21505;SDS011;10914;48.886;9.394;2022-07-01T06:51:36;116.80;;;111.07;;
21505;SDS011;10914;48.886;9.394;2022-07-01T06:54:01;125.65;;;119.45;;
21505;SDS011;10914;48.886;9.394;2022-07-01T06:56:27;117.07;;;111.30;;
21505;SDS011;10914;48.886;9.394;2022-07-01T06:58:52;125.22;;;119.13;;
21505;SDS011;10914;48.886;9.394;2022-07-01T07:01:18;116.05;;;110.05;;
21505;SDS011;10914;48.886;9.394;2022-07-01T07:03:43;128.40;;;122.17;;
21505;SDS011;10914;48.886;9.394;2022-07-01T07:06:08;137.57;;;130.97;;
21505;SDS011;10914;48.886;9.394;2022-07-01T07:08:33;131.15;;;124.70;;
21505;SDS011;10914;48.886;9.394;2022-07-01T07:10:59;105.53;;;100.45;;
21505;SDS011;10914;48.886;9.394;2022-07-01T07:13:24;98.35;;;93.72;;
21505;SDS011;10914;48.886;9.394;2022-07-01T07:15:50;70.88;;;67.45;;
21505;SDS011;10914;48.886;9.394;2022-07-01T07:18:15;95.28;;;90.65;;
21505;SDS011;10914;48.886;9.394;2022-07-01T07:20:41;113.90;;;108.45;;
21505;SDS011;10914;48.886;9.394;2022-07-01T07:23:06;116.30;;;110.70;;
21505;SDS011;10914;48.886;9.394;2022-07-01T07:25:31;131.00;;;124.27;;
21505;SDS011;10914;48.886;9.394;2022-07-01T07:27:57;111.32;;;106.20;;
21505;SDS011;10914;48.886;9.394;2022-07-01T07:30:22;98.60;;;93.97;;
21505;SDS011;10914;48.886;9.394;2022-07-01T07:32:47;84.83;;;80.80;;
21505;SDS011;10914;48.886;9.394;2022-07-01T07:35:12;62.13;;;59.25;;
21505;SDS011;10914;48.886;9.394;2022-07-01T07:37:38;93.18;;;88.93;;
21505;SDS011;10914;48.886;9.394;2022-07-01T07:40:04;42.60;;;40.55;;
21505;SDS011;10914;48.886;9.394;2022-07-01T07:42:31;33.00;;;31.50;;
21505;SDS011;10914;48.886;9.394;2022-07-01T07:44:57;36.75;;;35.08;;
21505;SDS011;10914;48.886;9.394;2022-07-01T07:47:22;48.83;;;46.60;;
21505;SDS011;10914;48.886;9.394;2022-07-01T07:49:47;38.43;;;36.67;;
21505;SDS011;10914;48.886;9.394;2022-07-01T07:52:12;38.13;;;36.40;;
21505;SDS011;10914;48.886;9.394;2022-07-01T07:54:38;53.97;;;51.47;;
21505;SDS011;10914;48.886;9.394;2022-07-01T07:57:04;40.17;;;38.20;;
21505;SDS011;10914;48.886;9.394;2022-07-01T07:59:29;43.05;;;40.90;;
21505;SDS011;10914;48.886;9.394;2022-07-01T08:01:55;41.80;;;39.83;;
21505;SDS011;10914;48.886;9.394;2022-07-01T08:04:20;53.40;;;50.88;;
21505;SDS011;10914;48.886;9.394;2022-07-01T08:06:45;25.90;;;24.60;;
21505;SDS011;10914;48.886;9.394;2022-07-01T08:09:10;24.85;;;23.65;;
21505;SDS011;10914;48.886;9.394;2022-07-01T08:11:36;26.20;;;24.90;;
21505;SDS011;10914;48.886;9.394;2022-07-01T08:14:01;24.02;;;22.92;;
21505;SDS011;10914;48.886;9.394;2022-07-01T08:16:26;23.90;;;22.80;;
21505;SDS011;10914;48.886;9.394;2022-07-01T08:18:52;26.50;;;25.20;;
21505;SDS011;10914;48.886;9.394;2022-07-01T08:21:17;30.50;;;29.00;;
21505;SDS011;10914;48.886;9.394;2022-07-01T08:23:42;29.23;;;27.73;;
21505;SDS011;10914;48.886;9.394;2022-07-01T08:26:07;29.20;;;27.80;;
21505;SDS011;10914;48.886;9.394;2022-07-01T08:28:33;36.45;;;34.70;;
21505;SDS011;10914;48.886;9.394;2022-07-01T08:30:58;45.08;;;42.97;;
21505;SDS011;10914;48.886;9.394;2022-07-01T08:33:23;35.40;;;33.63;;
21505;SDS011;10914;48.886;9.394;2022-07-01T08:35:48;27.77;;;26.38;;
21505;SDS011;10914;48.886;9.394;2022-07-01T08:38:14;32.83;;;31.15;;
21505;SDS011;10914;48.886;9.394;2022-07-01T08:40:39;32.05;;;30.52;;
21505;SDS011;10914;48.886;9.394;2022-07-01T08:43:05;31.13;;;29.63;;
21505;SDS011;10914;48.886;9.394;2022-07-01T08:45:31;28.13;;;26.73;;
21505;SDS011;10914;48.886;9.394;2022-07-01T08:47:57;26.38;;;24.92;;
21505;SDS011;10914;48.886;9.394;2022-07-01T08:50:25;25.77;;;24.48;;
21505;SDS011;10914;48.886;9.394;2022-07-01T08:52:50;25.90;;;24.50;;
21505;SDS011;10914;48.886;9.394;2022-07-01T08:55:16;24.92;;;23.63;;
21505;SDS011;10914;48.886;9.394;2022-07-01T08:57:41;27.17;;;25.88;;
21505;SDS011;10914;48.886;9.394;2022-07-01T09:00:07;26.50;;;25.10;;
21505;SDS011;10914;48.886;9.394;2022-07-01T09:05:20;25.40;;;24.10;;
21505;SDS011;10914;48.886;9.394;2022-07-01T09:07:46;23.20;;;22.10;;
21505;SDS011;10914;48.886;9.394;2022-07-01T09:10:15;34.03;;;32.33;;
21505;SDS011;10914;48.886;9.394;2022-07-01T09:12:43;26.20;;;24.80;;
21505;SDS011;10914;48.886;9.394;2022-07-01T09:15:25;26.35;;;24.85;;
21505;SDS011;10914;48.886;9.394;2022-07-01T09:17:54;31.23;;;29.73;;
21505;SDS011;10914;48.886;9.394;2022-07-01T09:20:30;25.95;;;24.42;;
21505;SDS011;10914;48.886;9.394;2022-07-01T09:22:56;25.60;;;24.30;;
21505;SDS011;10914;48.886;9.394;2022-07-01T09:25:26;28.48;;;27.00;;
21505;SDS011;10914;48.886;9.394;2022-07-01T09:28:02;32.60;;;30.92;;
21505;SDS011;10914;48.886;9.394;2022-07-01T09:30:27;26.17;;;24.70;;
21505;SDS011;10914;48.886;9.394;2022-07-01T09:33:04;26.80;;;25.37;;
21505;SDS011;10914;48.886;9.394;2022-07-01T09:35:30;42.13;;;40.00;;
21505;SDS011;10914;48.886;9.394;2022-07-01T09:37:56;26.77;;;25.48;;
21505;SDS011;10914;48.886;9.394;2022-07-01T09:40:21;27.42;;;25.92;;
21505;SDS011;10914;48.886;9.394;2022-07-01T09:42:47;24.58;;;23.33;;
21505;SDS011;10914;48.886;9.394;2022-07-01T09:45:12;25.83;;;24.38;;
21505;SDS011;10914;48.886;9.394;2022-07-01T09:47:40;24.70;;;23.20;;
21505;SDS011;10914;48.886;9.394;2022-07-01T09:50:08;24.80;;;23.50;;
21505;SDS011;10914;48.886;9.394;2022-07-01T09:52:34;28.52;;;26.88;;
21505;SDS011;10914;48.886;9.394;2022-07-01T09:54:59;25.48;;;24.15;;
21505;SDS011;10914;48.886;9.394;2022-07-01T09:57:24;25.38;;;24.02;;
21505;SDS011;10914;48.886;9.394;2022-07-01T09:59:50;32.92;;;31.13;;
21505;SDS011;10914;48.886;9.394;2022-07-01T10:02:17;49.47;;;47.10;;
21505;SDS011;10914;48.886;9.394;2022-07-01T10:05:28;38.55;;;36.28;;
21505;SDS011;10914;48.886;9.394;2022-07-01T10:15:03;54.20;;;51.43;;
21505;SDS011;10914;48.886;9.394;2022-07-01T10:17:31;37.47;;;35.65;;
21505;SDS011;10914;48.886;9.394;2022-07-01T10:20:05;33.22;;;31.63;;
21505;SDS011;10914;48.886;9.394;2022-07-01T10:22:34;31.83;;;30.13;;
21505;SDS011;10914;48.886;9.394;2022-07-01T10:27:43;24.63;;;23.33;;
21505;SDS011;10914;48.886;9.394;2022-07-01T10:30:11;27.90;;;26.40;;
21505;SDS011;10914;48.886;9.394;2022-07-01T10:32:41;25.63;;;24.13;;
21505;SDS011;10914;48.886;9.394;2022-07-01T10:35:07;39.10;;;37.05;;
21505;SDS011;10914;48.886;9.394;2022-07-01T10:37:32;27.63;;;26.02;;
21505;SDS011;10914;48.886;9.394;2022-07-01T10:40:01;33.47;;;31.77;;
21505;SDS011;10914;48.886;9.394;2022-07-01T10:42:29;26.63;;;25.15;;
21505;SDS011;10914;48.886;9.394;2022-07-01T10:47:30;24.40;;;23.20;;
21505;SDS011;10914;48.886;9.394;2022-07-01T10:49:56;22.10;;;20.95;;
21505;SDS011;10914;48.886;9.394;2022-07-01T10:52:22;22.38;;;21.20;;
21505;SDS011;10914;48.886;9.394;2022-07-01T10:54:49;22.98;;;21.77;;
21505;SDS011;10914;48.886;9.394;2022-07-01T10:59:40;26.80;;;25.42;;
21505;SDS011;10914;48.886;9.394;2022-07-01T11:02:11;25.47;;;24.27;;
21505;SDS011;10914;48.886;9.394;2022-07-01T11:04:37;21.60;;;20.60;;
21505;SDS011;10914;48.886;9.394;2022-07-01T11:07:02;22.85;;;21.70;;
21505;SDS011;10914;48.886;9.394;2022-07-01T11:09:28;21.55;;;20.35;;
21505;SDS011;10914;48.886;9.394;2022-07-01T11:11:53;24.17;;;22.98;;
21505;SDS011;10914;48.886;9.394;2022-07-01T11:14:18;23.10;;;22.00;;
21505;SDS011;10914;48.886;9.394;2022-07-01T11:16:44;20.50;;;19.50;;
21505;SDS011;10914;48.886;9.394;2022-07-01T11:19:09;22.33;;;21.23;;
21505;SDS011;10914;48.886;9.394;2022-07-01T11:21:34;20.47;;;19.37;;
21505;SDS011;10914;48.886;9.394;2022-07-01T11:23:59;19.90;;;18.90;;
21505;SDS011;10914;48.886;9.394;2022-07-01T11:26:25;19.65;;;18.60;;
21505;SDS011;10914;48.886;9.394;2022-07-01T11:28:50;19.10;;;18.20;;
21505;SDS011;10914;48.886;9.394;2022-07-01T11:31:15;20.27;;;19.17;;
21505;SDS011;10914;48.886;9.394;2022-07-01T11:33:50;19.73;;;18.73;;
21505;SDS011;10914;48.886;9.394;2022-07-01T11:36:15;21.73;;;20.63;;
21505;SDS011;10914;48.886;9.394;2022-07-01T11:38:59;21.35;;;20.33;;
21505;SDS011;10914;48.886;9.394;2022-07-01T11:41:43;21.30;;;20.30;;
21505;SDS011;10914;48.886;9.394;2022-07-01T11:44:08;23.10;;;21.90;;
21505;SDS011;10914;48.886;9.394;2022-07-01T11:46:34;23.08;;;21.88;;
21505;SDS011;10914;48.886;9.394;2022-07-01T11:48:59;26.50;;;25.20;;
21505;SDS011;10914;48.886;9.394;2022-07-01T11:51:24;21.40;;;20.40;;
21505;SDS011;10914;48.886;9.394;2022-07-01T11:53:52;26.77;;;25.38;;
21505;SDS011;10914;48.886;9.394;2022-07-01T11:56:29;27.02;;;25.77;;
21505;SDS011;10914;48.886;9.394;2022-07-01T11:58:55;18.88;;;18.00;;
21505;SDS011;10914;48.886;9.394;2022-07-01T12:01:34;19.90;;;18.90;;
21505;SDS011;10914;48.886;9.394;2022-07-01T12:04:03;18.50;;;17.60;;
21505;SDS011;10914;48.886;9.394;2022-07-01T12:06:29;18.50;;;17.50;;
21505;SDS011;10914;48.886;9.394;2022-07-01T12:08:55;17.38;;;16.48;;
21505;SDS011;10914;48.886;9.394;2022-07-01T12:11:22;17.98;;;17.08;;
21505;SDS011;10914;48.886;9.394;2022-07-01T12:13:47;17.73;;;16.83;;
21505;SDS011;10914;48.886;9.394;2022-07-01T12:16:12;17.67;;;16.88;;
21505;SDS011;10914;48.886;9.394;2022-07-01T12:18:38;16.60;;;15.73;;
21505;SDS011;10914;48.886;9.394;2022-07-01T12:21:03;17.55;;;16.65;;
21505;SDS011;10914;48.886;9.394;2022-07-01T12:23:29;17.85;;;16.90;;
21505;SDS011;10914;48.886;9.394;2022-07-01T12:25:55;18.88;;;17.95;;
21505;SDS011;10914;48.886;9.394;2022-07-01T12:28:33;17.53;;;16.63;;
21505;SDS011;10914;48.886;9.394;2022-07-01T12:31:03;19.88;;;18.92;;
21505;SDS011;10914;48.886;9.394;2022-07-01T12:33:28;18.40;;;17.50;;
21505;SDS011;10914;48.886;9.394;2022-07-01T12:35:54;20.92;;;19.90;;
21505;SDS011;10914;48.886;9.394;2022-07-01T12:38:20;20.42;;;19.42;;
21505;SDS011;10914;48.886;9.394;2022-07-01T12:40:45;21.85;;;20.77;;
21505;SDS011;10914;48.886;9.394;2022-07-01T12:43:27;19.27;;;18.27;;
21505;SDS011;10914;48.886;9.394;2022-07-01T12:45:54;19.70;;;18.52;;
21505;SDS011;10914;48.886;9.394;2022-07-01T12:48:20;19.77;;;18.65;;
21505;SDS011;10914;48.886;9.394;2022-07-01T12:50:45;20.85;;;19.75;;
21505;SDS011;10914;48.886;9.394;2022-07-01T12:53:18;19.70;;;18.80;;
21505;SDS011;10914;48.886;9.394;2022-07-01T12:55:48;19.33;;;18.33;;
21505;SDS011;10914;48.886;9.394;2022-07-01T12:58:17;19.48;;;18.38;;
21505;SDS011;10914;48.886;9.394;2022-07-01T13:00:43;22.00;;;20.90;;
21505;SDS011;10914;48.886;9.394;2022-07-01T13:03:09;18.20;;;17.30;;
21505;SDS011;10914;48.886;9.394;2022-07-01T13:05:35;19.48;;;18.58;;
21505;SDS011;10914;48.886;9.394;2022-07-01T13:08:02;19.02;;;18.13;;
21505;SDS011;10914;48.886;9.394;2022-07-01T13:10:27;19.02;;;18.02;;
21505;SDS011;10914;48.886;9.394;2022-07-01T13:12:52;18.25;;;17.35;;
21505;SDS011;10914;48.886;9.394;2022-07-01T13:15:18;17.08;;;16.27;;
21505;SDS011;10914;48.886;9.394;2022-07-01T13:17:44;17.25;;;16.38;;
21505;SDS011;10914;48.886;9.394;2022-07-01T13:20:10;17.33;;;16.52;;
21505;SDS011;10914;48.886;9.394;2022-07-01T13:22:35;18.10;;;17.00;;
21505;SDS011;10914;48.886;9.394;2022-07-01T13:25:01;17.50;;;16.70;;
21505;SDS011;10914;48.886;9.394;2022-07-01T13:27:26;17.02;;;16.23;;
21505;SDS011;10914;48.886;9.394;2022-07-01T13:29:51;17.50;;;16.50;;
21505;SDS011;10914;48.886;9.394;2022-07-01T13:32:17;17.47;;;16.67;;
21505;SDS011;10914;48.886;9.394;2022-07-01T13:34:42;17.45;;;16.40;;
21505;SDS011;10914;48.886;9.394;2022-07-01T13:37:08;17.50;;;16.55;;
21505;SDS011;10914;48.886;9.394;2022-07-01T13:39:33;18.47;;;17.60;;
21505;SDS011;10914;48.886;9.394;2022-07-01T13:41:58;19.43;;;18.53;;
21505;SDS011;10914;48.886;9.394;2022-07-01T13:44:23;18.43;;;17.53;;
21505;SDS011;10914;48.886;9.394;2022-07-01T13:46:49;17.88;;;16.98;;
21505;SDS011;10914;48.886;9.394;2022-07-01T13:49:14;20.57;;;19.47;;
21505;SDS011;10914;48.886;9.394;2022-07-01T13:51:39;20.77;;;19.67;;
21505;SDS011;10914;48.886;9.394;2022-07-01T13:54:04;18.10;;;17.10;;
21505;SDS011;10914;48.886;9.394;2022-07-01T13:56:30;18.23;;;17.33;;
21505;SDS011;10914;48.886;9.394;2022-07-01T13:58:55;18.73;;;17.83;;
21505;SDS011;10914;48.886;9.394;2022-07-01T14:01:21;17.53;;;16.73;;
21505;SDS011;10914;48.886;9.394;2022-07-01T14:03:49;17.65;;;16.85;;
21505;SDS011;10914;48.886;9.394;2022-07-01T14:06:15;17.73;;;16.85;;
21505;SDS011;10914;48.886;9.394;2022-07-01T14:08:40;17.40;;;16.48;;
21505;SDS011;10914;48.886;9.394;2022-07-01T14:11:05;16.27;;;15.47;;
21505;SDS011;10914;48.886;9.394;2022-07-01T14:13:30;15.80;;;15.00;;
21505;SDS011;10914;48.886;9.394;2022-07-01T14:15:56;15.63;;;14.82;;
21505;SDS011;10914;48.886;9.394;2022-07-01T14:18:21;15.50;;;14.70;;
21505;SDS011;10914;48.886;9.394;2022-07-01T14:20:46;15.50;;;14.70;;
21505;SDS011;10914;48.886;9.394;2022-07-01T14:23:12;15.55;;;14.57;;
21505;SDS011;10914;48.886;9.394;2022-07-01T14:25:37;15.40;;;14.50;;
21505;SDS011;10914;48.886;9.394;2022-07-01T14:28:03;15.82;;;15.02;;